Latest Weather Observations for Melbourne Airport

IDV60901

Issued at 1:21 pm EST Tuesday 28 July 2015 (issued every 10 minutes, with the page automatically refreshed every 10 minutes)

About weather observations | Map of Melbourne area stations | Latest observations for Melbourne area | Other Formats
Station Details ID: 086282 Name: MELBOURNE AIRPORT Lat: -37.67 Lon: 144.83 Height: 113.4 m
Data from the previous 72 hours. | See also: Recent months at Melbourne Airport
Date/Time
EST
Tmp

°C
App
Tmp
°C
Dew
Point
°C
Rel
Hum
%
Delta-T

°C
Wind Press
QNH
hPa
Press
MSL
hPa
Rain
since
9 am
mm
Dir
 
Spd
km/h
Gust
km/h
Spd
kts
Gust
kts
28/12:00pm 12.0 7.1 5.0 62 3.2 WSW 20 28 11 15 1034.6 1034.9 0.0
28/11:30am 12.2 7.8 5.0 61 3.3 WSW 17 26 9 14 1035.0 1035.3 0.0
28/11:00am 11.7 6.9 5.6 66 2.8 WSW 20 26 11 14 1035.5 1035.8 0.0
28/10:30am 11.4 6.2 5.5 67 2.7 WSW 22 28 12 15 1035.5 1035.8 0.0
28/10:00am 11.1 6.9 5.7 69 2.5 W 17 24 9 13 1035.5 1035.8 0.0
28/09:30am 10.5 6.0 6.2 75 2.0 W 19 24 10 13 1035.4 1035.7 0.0
28/09:00am 9.5 4.9 5.8 78 1.7 W 19 24 10 13 1035.2 1035.5 0.0
28/08:30am 8.5 4.2 5.4 81 1.4 W 17 24 9 13 1034.7 1035.0 0.0
28/08:00am 8.5 4.3 5.6 82 1.3 W 17 20 9 11 1034.5 1034.8 0.0
28/07:30am 8.4 3.8 5.5 82 1.3 W 19 22 10 12 1034.1 1034.4 0.0
28/07:00am 8.5 4.3 5.6 82 1.3 W 17 22 9 12 1033.7 1034.0 0.0
28/06:30am 8.3 4.1 5.6 83 1.2 W 17 22 9 12 1033.3 1033.6 0.0
28/05:30am 7.8 4.4 5.8 87 0.9 WNW 13 19 7 10 1032.8 1033.1 0.0
28/05:00am 7.6 4.1 5.6 87 0.9 WNW 13 15 7 8 1032.6 1032.9 0.0
28/04:30am 7.5 4.0 5.5 87 0.9 NW 13 17 7 9 1032.3 1032.5 0.0
28/04:00am 7.6 4.1 5.3 85 1.0 WNW 13 17 7 9 1032.3 1032.5 0.0
28/03:30am 7.2 3.6 5.2 87 0.9 WNW 13 15 7 8 1032.2 1032.4 0.0
28/03:00am 7.5 3.5 5.0 84 1.1 WNW 15 24 8 13 1032.1 1032.3 0.0
28/02:30am 7.0 3.0 4.7 85 1.0 WNW 15 19 8 10 1032.0 1032.2 0.0
28/02:00am 6.8 2.8 4.7 86 0.9 WNW 15 19 8 10 1031.9 1032.1 0.0
28/01:30am 7.1 2.3 4.6 84 1.1 WNW 19 28 10 15 1031.5 1031.7 0.0
28/01:00am 7.5 3.4 4.5 81 1.3 NW 15 20 8 11 1031.5 1031.7 0.0
28/12:30am 7.2 2.8 4.7 84 1.1 WNW 17 20 9 11 1031.5 1031.7 0.0
 
Date/Time
EST
Tmp

°C
App
Tmp
°C
Dew
Point
°C
Rel
Hum
%
Delta-T

°C
Wind Press
QNH
hPa
Press
MSL
hPa
Rain
since
9 am
mm
Dir
 
Spd
km/h
Gust
km/h
Spd
kts
Gust
kts
27/11:30pm 7.1 2.3 4.6 84 1.1 W 19 26 10 14 1031.5 1031.7 0.0
27/11:00pm 6.9 2.1 4.6 85 1.0 W 19 26 10 14 1031.5 1031.7 0.0
27/10:30pm 7.7 2.9 4.7 81 1.3 W 19 24 10 13 1031.5 1031.7 0.0
27/10:00pm 8.2 2.8 4.5 77 1.6 W 22 28 12 15 1031.5 1031.7 0.0
27/09:30pm 8.5 3.7 4.6 76 1.7 W 19 24 10 13 1031.6 1031.8 0.0
27/09:00pm 7.9 3.5 4.5 79 1.5 WNW 17 24 9 13 1031.5 1031.7 0.0
27/08:30pm 7.3 2.7 3.8 78 1.5 WNW 17 24 9 13 1031.4 1031.6 0.0
27/08:00pm 7.0 2.8 4.0 81 1.3 WNW 15 19 8 10 1031.3 1031.5 0.0
27/07:30pm 7.4 2.8 3.9 78 1.5 WNW 17 22 9 12 1031.2 1031.4 0.0
27/07:00pm 6.9 2.4 4.1 82 1.2 WNW 17 20 9 11 1030.9 1031.1 0.0
27/06:30pm 7.7 3.5 4.0 77 1.6 W 15 17 8 9 1030.5 1030.7 0.0
27/05:30pm 10.2 5.3 4.1 66 2.7 WSW 19 26 10 14 1029.9 1030.1 0.0
27/05:00pm 10.6 4.3 3.5 61 3.1 WSW 26 33 14 18 1029.6 1029.8 0.0
27/04:30pm 11.8 5.1 3.4 56 3.7 WSW 28 37 15 20 1029.3 1029.5 0.0
27/04:00pm 12.1 5.2 2.7 52 4.1 WSW 28 35 15 19 1028.9 1029.1 0.0
27/03:30pm 12.0 4.8 2.8 53 4.0 WSW 30 37 16 20 1028.7 1028.9 0.0
27/03:00pm 12.6 5.4 3.1 52 4.2 WSW 30 37 16 20 1028.3 1028.5 0.0
27/02:30pm 12.1 4.9 3.0 53 4.0 WSW 30 39 16 21 1028.3 1028.5 0.0
27/02:00pm 11.9 4.8 3.6 57 3.7 WSW 30 37 16 20 1028.1 1028.3 0.0
27/01:30pm 11.4 4.7 3.5 58 3.5 WSW 28 37 15 20 1028.0 1028.2 0.0
27/01:00pm 11.7 4.6 3.6 57 3.6 WSW 30 37 16 20 1028.2 1028.4 0.0
27/12:30pm 11.2 4.1 3.5 59 3.4 WSW 30 35 16 19 1028.5 1028.7 0.0
27/12:00pm 10.8 3.7 3.5 60 3.2 WSW 30 39 16 21 1028.8 1029.0 0.0
27/11:30am 11.2 3.7 3.5 59 3.4 WSW 32 41 17 22 1028.9 1029.1 0.0
27/11:00am 10.1 2.6 3.4 63 2.9 WSW 32 39 17 21 1029.0 1029.2 0.0
27/10:30am 9.9 2.7 3.2 63 2.9 WSW 30 39 16 21 1028.9 1029.1 0.0
27/10:00am 9.1 2.7 3.3 67 2.5 W 26 33 14 18 1028.6 1028.8 0.0
27/09:30am 8.2 2.6 3.3 71 2.1 W 22 30 12 16 1028.2 1028.4 0.0
27/09:00am 8.0 2.4 3.3 72 2.0 W 22 28 12 15 1028.0 1028.2 0.6
27/08:30am 6.5 0.8 2.9 78 1.5 WNW 22 35 12 19 1027.5 1027.7 0.6
27/08:00am 5.5 -0.2 2.6 81 1.2 WNW 22 28 12 15 1027.1 1027.3 0.6
27/07:30am 5.2 -0.3 2.0 80 1.3 W 20 28 11 15 1026.6 1026.9 0.6
27/07:00am 4.8 -0.7 1.8 81 1.2 WNW 20 30 11 16 1026.2 1026.5 0.6
27/06:30am 4.5 -1.0 1.7 82 1.1 W 20 26 11 14 1025.9 1026.2 0.6
27/06:00am 4.6 -1.4 1.3 79 1.3 W 22 30 12 16 1025.4 1025.7 0.6
27/05:30am 4.9 -0.7 1.3 77 1.4 W 20 30 11 16 1025.2 1025.4 0.6
27/05:00am 4.8 -1.6 0.9 76 1.5 W 24 28 13 15 1025.0 1025.2 0.6
27/04:30am 5.1 -1.7 0.7 73 1.7 W 26 32 14 17 1024.7 1024.9 0.6
27/04:00am 4.5 -1.9 0.9 77 1.4 W 24 30 13 16 1024.3 1024.5 0.6
27/03:30am 4.7 -1.7 0.8 76 1.5 WNW 24 32 13 17 1024.0 1024.2 0.6
27/03:00am 4.7 -2.1 1.1 77 1.4 WNW 26 39 14 21 1024.0 1024.2 0.6
27/02:30am 4.4 -1.2 1.3 80 1.2 WNW 20 32 11 17 1023.7 1023.9 0.6
27/02:00am 4.8 -0.8 1.5 79 1.3 W 20 28 11 15 1023.5 1023.7 0.6
27/01:30am 5.4 -0.5 1.6 76 1.5 W 22 30 12 16 1023.3 1023.5 0.6
27/01:00am 5.0 -0.9 1.5 78 1.4 W 22 28 12 15 1023.2 1023.4 0.6
27/12:30am 4.4 -0.9 1.6 82 1.1 W 19 24 10 13 1023.0 1023.2 0.6
27/12:00am 5.4 -0.5 1.6 76 1.5 W 22 28 12 15 1022.8 1023.0 0.6
 
Date/Time
EST
Tmp

°C
App
Tmp
°C
Dew
Point
°C
Rel
Hum
%
Delta-T

°C
Wind Press
QNH
hPa
Press
MSL
hPa
Rain
since
9 am
mm
Dir
 
Spd
km/h
Gust
km/h
Spd
kts
Gust
kts
26/11:30pm 5.8 -0.9 1.6 74 1.7 W 26 32 14 17 1022.7 1022.9 0.6
26/11:00pm 5.5 -1.3 0.9 72 1.8 W 26 33 14 18 1022.3 1022.5 0.6
26/10:30pm 5.2 -0.2 1.1 75 1.6 WNW 19 24 10 13 1022.1 1022.3 0.6
26/10:00pm 5.6 -0.4 1.0 72 1.8 WNW 22 32 12 17 1021.6 1021.8 0.6
26/09:30pm 5.1 -0.1 0.4 71 1.8 WNW 17 22 9 12 1021.4 1021.6 0.6
26/09:00pm 5.6 0.0 0.2 68 2.1 WNW 19 30 10 16 1021.0 1021.2 0.6
26/08:30pm 6.1 0.9 0.2 66 2.3 WNW 17 28 9 15 1020.7 1020.9 0.6
26/08:00pm 5.5 -0.2 0.3 69 2.0 WNW 20 28 11 15 1020.3 1020.5 0.6
26/07:30pm 5.8 -0.3 0.4 68 2.1 WNW 22 30 12 16 1019.8 1020.0 0.6
26/07:00pm 5.7 0.6 0.9 71 1.9 NW 17 26 9 14 1019.3 1019.5 0.6
26/06:30pm 6.0 -0.8 0.9 70 2.0 WNW 26 37 14 20 1018.6 1018.8 0.6
26/06:00pm 6.6 -1.0 0.5 65 2.4 W 30 39 16 21 1018.2 1018.3 0.6
26/05:30pm 7.0 -1.9 0.7 64 2.5 W 37 46 20 25 1017.7 1017.9 0.6
26/05:00pm 7.7 -1.6 0.7 61 2.8 W 39 54 21 29 1017.5 1017.7 0.6
26/04:30pm 8.0 0.0 1.7 64 2.6 WNW 33 41 18 22 1016.8 1017.0 0.6
26/04:00pm 8.4 -1.3 0.7 58 3.1 WNW 41 56 22 30 1016.4 1016.6 0.6
26/03:30pm 9.4 0.1 0.9 55 3.5 WNW 39 56 21 30 1016.1 1016.3 0.6
26/03:21pm 9.1 2.0 1.1 57 3.3 WNW 28 56 15 30 1016.0 1016.2 0.6
26/03:00pm 8.5 2.6 1.8 63 2.8 W 22 30 12 16 1015.6 1015.8 0.6
26/02:30pm 5.3 -5.2 1.3 75 1.6 WSW 46 83 25 45 1015.9 1016.1 0.6
26/02:16pm 5.7 -5.7 2.8 81 1.2 W 52 80 28 43 1015.9 1016.1 0.0
26/02:09pm 9.2 -0.4 -1.7 46 4.2 W 39 63 21 34 1015.0 1015.2 0.0
26/02:00pm 9.7 0.0 -2.0 44 4.5 W 39 50 21 27 1014.7 1014.9 0.0
26/01:30pm 10.7 1.1 -1.5 42 4.8 W 39 50 21 27 1014.5 1014.7 0.0
26/01:02pm 9.3 -0.4 -1.9 45 4.3 W 39 57 21 31 1014.5 1014.7 0.0
26/01:00pm 9.2 -0.9 -2.1 45 4.3 W 41 57 22 31 1014.5 1014.7 0.0
26/12:30pm 10.2 -0.2 -0.2 48 4.2 W 44 57 24 31 1014.5 1014.7 0.0
26/12:02pm 9.9 0.8 -0.7 47 4.2 W 37 57 20 31 1014.4 1014.6 0.0
26/12:00pm 9.6 1.0 -0.1 51 3.9 W 35 46 19 25 1014.5 1014.7 0.0
26/11:30am 9.6 -0.7 -0.8 48 4.1 W 43 63 23 34 1014.6 1014.8 0.0
26/11:00am 9.2 -1.1 -0.7 50 3.9 W 43 56 23 30 1014.4 1014.6 0.0
26/10:30am 9.4 -0.4 -0.1 51 3.8 WNW 41 56 22 30 1014.2 1014.4 0.0
26/10:00am 9.1 0.2 0.5 55 3.5 WNW 37 54 20 29 1013.7 1013.9 0.0
26/09:36am 8.8 -0.2 0.4 55 3.4 WNW 37 57 20 31 1013.1 1013.3 0.0
26/09:30am 8.5 -0.2 -0.4 53 3.5 WNW 35 44 19 24 1012.9 1013.1 0.0
26/09:00am 8.1 0.8 -0.3 55 3.3 WNW 28 46 15 25 1013.0 1013.2 2.6
26/08:30am 7.2 1.2 1.0 65 2.5 NW 22 35 12 19 1012.4 1012.6 2.6
26/08:00am 6.8 1.2 1.4 68 2.2 NNW 20 28 11 15 1012.0 1012.2 2.6
26/07:30am 6.1 0.6 1.9 74 1.7 NW 20 26 11 14 1011.8 1012.0 2.6
26/07:00am 6.5 1.2 1.8 72 1.9 NNW 19 33 10 18 1011.5 1011.7 2.6
26/06:30am 6.6 1.6 1.1 68 2.2 NW 17 30 9 16 1011.0 1011.1 2.6
26/06:00am 7.0 0.7 1.3 67 2.3 W 24 33 13 18 1010.6 1010.7 2.6
26/05:30am 7.1 1.0 2.6 73 1.9 W 24 32 13 17 1010.1 1010.2 2.6
26/05:00am 7.7 1.3 3.3 74 1.9 WNW 26 33 14 18 1009.9 1010.0 2.6
26/04:30am 7.6 -0.6 4.7 82 1.3 W 37 50 20 27 1009.7 1009.8 2.6
26/04:23am 7.5 -0.7 5.0 84 1.1 W 37 52 20 28 1009.8 1009.9 2.6
26/04:08am 8.7 1.7 4.2 73 2.0 W 30 48 16 26 1009.6 1009.7 2.4
26/04:00am 8.7 4.1 5.6 81 1.4 W 19 28 10 15 1009.4 1009.5 2.4
26/03:30am 8.4 2.7 6.9 90 0.7 WNW 26 39 14 21 1009.0 1009.2 2.4
26/03:06am 9.0 4.0 6.4 84 1.2 W 22 50 12 27 1009.4 1009.5 1.6
26/03:00am 9.2 5.9 6.4 83 1.3 WNW 13 28 7 15 1009.1 1009.3 1.2
26/02:30am 9.2 6.1 7.3 88 0.9 NW 13 19 7 10 1009.1 1009.3 1.2
26/02:22am 9.1 5.4 7.9 92 0.6 WNW 17 24 9 13 1009.5 1009.6 1.2
26/02:00am 9.7 4.5 7.4 85 1.1 NW 24 39 13 21 1009.1 1009.3 0.8
26/01:30am 9.5 4.0 7.4 87 1.0 N 26 32 14 17 1008.8 1009.0 0.2
26/01:00am 10.0 3.0 5.9 75 1.9 NNW 32 41 17 22 1008.9 1009.1 0.0
26/12:30am 10.6 2.0 4.9 68 2.6 N 39 52 21 28 1008.1 1008.3 0.0
26/12:00am 10.5 0.3 5.0 69 2.5 N 48 67 26 36 1008.0 1008.2 0.0
 
Date/Time
EST
Tmp

°C
App
Tmp
°C
Dew
Point
°C
Rel
Hum
%
Delta-T

°C
Wind Press
QNH
hPa
Press
MSL
hPa
Rain
since
9 am
mm
Dir
 
Spd
km/h
Gust
km/h
Spd
kts
Gust
kts
25/11:38pm 11.2 0.7 3.8 60 3.3 N 48 70 26 38 1007.8 1008.0 0.0
25/11:30pm 11.0 0.5 3.9 61 3.2 N 48 65 26 35 1007.7 1007.9 0.0
25/11:00pm 10.9 1.4 4.0 62 3.1 N 43 61 23 33 1008.5 1008.7 0.0
25/10:30pm 11.2 0.7 3.6 59 3.4 N 48 61 26 33 1009.0 1009.2 0.0
25/10:13pm 11.4 2.1 3.0 56 3.7 NNW 41 61 22 33 1009.4 1009.5 0.0
25/10:00pm 11.4 2.1 3.0 56 3.7 N 41 54 22 29 1009.3 1009.4 0.0
25/09:34pm 10.4 1.7 3.9 64 2.9 N 39 57 21 31 1009.4 1009.5 0.0
25/09:30pm 10.5 1.0 4.0 64 2.9 N 43 57 23 31 1009.4 1009.5 0.0
25/09:00pm 11.1 0.2 3.4 59 3.4 N 50 61 27 33 1009.6 1009.7 0.0
25/08:36pm 11.3 1.5 3.1 57 3.6 N 44 63 24 34 1010.0 1010.1 0.0
25/08:30pm 11.4 1.5 3.0 56 3.7 N 44 57 24 31 1009.9 1010.0 0.0
25/08:11pm 11.3 2.4 2.9 56 3.7 N 39 57 21 31 1010.3 1010.4 0.0
25/08:00pm 11.4 2.4 2.7 55 3.8 N 39 52 21 28 1010.5 1010.6 0.0
25/07:30pm 11.3 2.0 2.9 56 3.7 N 41 56 22 30 1010.7 1010.8 0.0
25/07:00pm 11.0 2.5 3.3 59 3.4 N 37 46 20 25 1010.5 1010.6 0.0
25/06:30pm 11.0 3.5 3.3 59 3.4 N 32 46 17 25 1010.9 1011.0 0.0
25/06:00pm 10.9 4.2 3.4 60 3.3 NNW 28 35 15 19 1011.1 1011.2 0.0
25/05:30pm 11.0 4.3 3.8 61 3.2 NNW 28 37 15 20 1011.3 1011.4 0.0
25/05:12pm 11.6 4.9 3.8 59 3.5 NNW 28 48 15 26 1011.3 1011.4 0.0
25/05:00pm 11.9 5.2 3.6 57 3.7 NNW 28 43 15 23 1011.5 1011.7 0.0
25/04:30pm 12.0 4.6 3.8 57 3.7 NNW 32 50 17 27 1011.7 1011.9 0.0
25/04:00pm 12.3 5.2 3.3 54 4.0 NNW 30 41 16 22 1011.8 1012.0 0.0
25/03:30pm 12.3 5.5 3.3 54 4.0 NNW 28 43 15 23 1011.9 1012.1 0.0
25/03:00pm 12.2 5.9 3.5 55 3.9 N 26 37 14 20 1011.8 1012.0 0.0
25/02:30pm 11.8 5.5 3.8 58 3.6 N 26 39 14 21 1012.1 1012.3 0.0
25/02:00pm 11.7 6.6 3.9 59 3.5 NNW 20 30 11 16 1012.4 1012.6 0.0
25/01:30pm 11.6 5.6 3.2 56 3.7 NNW 24 35 13 19 1012.5 1012.7 0.0

Latest Capital City Observations: Canberra | Sydney | Melbourne | Brisbane | Adelaide | Perth | Hobart | Darwin

Other Formats:

Comma delimited format used in spreadsheet applications
http://www.bom.gov.au/fwo/IDV60901/IDV60901.94866.axf

JavaScript Object Notation format (JSON) in row-major order
http://www.bom.gov.au/fwo/IDV60901/IDV60901.94866.json